KPNT

Pontiac Municipal Airport

Pontiac, Illinois, USA
METAR KPNT 121915Z AUTO 25018G22KT 10SM CLR 06/M01 A2980 RMK AO2 T00551009
Observed Flight Rules
Dec-12 @ 19:15 UTC (19 minutes ago) Visual Flight Rules
Wind Visibility Clouds
250° at 18 knots
 Gusting to 22 knots
10 miles
  • Clear skies
Temperatures Readings
Current 6°C / 43°F
Dewpoint -1°C / 30°F
Humidity 61%
Altimeter 29.8" Hg
Pressure 1009 hPa
Elevation 201
METAR KPNT 121915Z AUTO 25018G22KT 10SM CLR 06/M01 A2980 RMK AO2 T00551009
Observed Flight Rules
Dec-12 @ 19:15 UTC
(19 minutes ago)
VFR
Wind Visibility
250° at 18 knots
 Gusting to 22 knots
10 miles
Clouds
  • Clear skies
Temperature Dewpoint
6°C / 43°F -1°C / 30°F
Humidity Altimeter Pressure
61% 29.8" Hg 1009 hPa